sensor_id;sensor_type;location;lat;lon;timestamp;pressure;altitude;pressure_sealevel;temperature;humidity
75418;BME280;63997;52.112;5.420;2023-10-31T00:01:09;99716.34;;;10.00;100.00
75418;BME280;63997;52.112;5.420;2023-10-31T00:03:36;99713.25;;;9.98;100.00
75418;BME280;63997;52.112;5.420;2023-10-31T00:06:02;99721.22;;;9.98;100.00
75418;BME280;63997;52.112;5.420;2023-10-31T00:08:29;99728.44;;;9.97;100.00
75418;BME280;63997;52.112;5.420;2023-10-31T00:10:55;99717.78;;;9.97;100.00
75418;BME280;63997;52.112;5.420;2023-10-31T00:13:22;99716.63;;;9.95;100.00
75418;BME280;63997;52.112;5.420;2023-10-31T00:15:48;99719.28;;;9.95;100.00
75418;BME280;63997;52.112;5.420;2023-10-31T00:18:14;99723.81;;;9.94;100.00
75418;BME280;63997;52.112;5.420;2023-10-31T00:20:41;99721.91;;;9.95;100.00
75418;BME280;63997;52.112;5.420;2023-10-31T00:23:07;99727.25;;;9.95;100.00
75418;BME280;63997;52.112;5.420;2023-10-31T00:25:34;99728.78;;;9.96;100.00
75418;BME280;63997;52.112;5.420;2023-10-31T00:28:01;99729.13;;;9.94;100.00
75418;BME280;63997;52.112;5.420;2023-10-31T00:30:27;99729.91;;;9.95;100.00
75418;BME280;63997;52.112;5.420;2023-10-31T00:32:53;99742.06;;;9.96;100.00
75418;BME280;63997;52.112;5.420;2023-10-31T00:35:20;99726.13;;;9.96;100.00
75418;BME280;63997;52.112;5.420;2023-10-31T00:37:46;99726.88;;;9.96;100.00
75418;BME280;63997;52.112;5.420;2023-10-31T00:40:13;99728.00;;;9.95;100.00
75418;BME280;63997;52.112;5.420;2023-10-31T00:42:40;99720.03;;;9.95;100.00
75418;BME280;63997;52.112;5.420;2023-10-31T00:45:08;99726.13;;;9.96;100.00
75418;BME280;63997;52.112;5.420;2023-10-31T00:47:35;99726.13;;;9.96;100.00
75418;BME280;63997;52.112;5.420;2023-10-31T00:50:02;99732.53;;;9.95;100.00
75418;BME280;63997;52.112;5.420;2023-10-31T00:52:29;99729.91;;;9.95;100.00
75418;BME280;63997;52.112;5.420;2023-10-31T00:54:55;99742.81;;;9.96;100.00
75418;BME280;63997;52.112;5.420;2023-10-31T00:57:22;99751.56;;;9.97;100.00
75418;BME280;63997;52.112;5.420;2023-10-31T00:59:48;99752.69;;;9.96;100.00
75418;BME280;63997;52.112;5.420;2023-10-31T01:02:15;99754.22;;;9.97;100.00
75418;BME280;63997;52.112;5.420;2023-10-31T01:04:41;99761.06;;;9.98;100.00
75418;BME280;63997;52.112;5.420;2023-10-31T01:07:08;99753.09;;;9.98;100.00
75418;BME280;63997;52.112;5.420;2023-10-31T01:09:38;99756.88;;;9.97;100.00
75418;BME280;63997;52.112;5.420;2023-10-31T01:12:05;99762.19;;;9.97;100.00
75418;BME280;63997;52.112;5.420;2023-10-31T01:14:32;99766.38;;;9.98;100.00
75418;BME280;63997;52.112;5.420;2023-10-31T01:16:58;99769.03;;;9.98;100.00
75418;BME280;63997;52.112;5.420;2023-10-31T01:19:25;99766.81;;;10.00;100.00
75418;BME280;63997;52.112;5.420;2023-10-31T01:21:51;99772.13;;;10.00;100.00
75418;BME280;63997;52.112;5.420;2023-10-31T01:24:17;99786.19;;;10.00;100.00
75418;BME280;63997;52.112;5.420;2023-10-31T01:26:44;99779.00;;;10.01;100.00
75418;BME280;63997;52.112;5.420;2023-10-31T01:29:10;99782.41;;;10.01;100.00
75418;BME280;63997;52.112;5.420;2023-10-31T01:31:37;99785.06;;;10.01;100.00
75418;BME280;63997;52.112;5.420;2023-10-31T01:34:21;99786.25;;;10.04;100.00
75418;BME280;63997;52.112;5.420;2023-10-31T01:36:47;99785.94;;;10.05;100.00
75418;BME280;63997;52.112;5.420;2023-10-31T01:39:14;99790.91;;;10.07;100.00
75418;BME280;63997;52.112;5.420;2023-10-31T01:41:41;99792.78;;;10.06;100.00
75418;BME280;63997;52.112;5.420;2023-10-31T01:44:12;99794.34;;;10.07;100.00
75418;BME280;63997;52.112;5.420;2023-10-31T01:46:38;99789.78;;;10.08;100.00
75418;BME280;63997;52.112;5.420;2023-10-31T01:49:05;99787.91;;;10.08;100.00
75418;BME280;63997;52.112;5.420;2023-10-31T01:51:31;99787.91;;;10.08;100.00
75418;BME280;63997;52.112;5.420;2023-10-31T01:53:58;99787.91;;;10.08;100.00
75418;BME280;63997;52.112;5.420;2023-10-31T01:56:25;99788.66;;;10.09;100.00
75418;BME280;63997;52.112;5.420;2023-10-31T01:58:52;99789.78;;;10.08;100.00
75418;BME280;63997;52.112;5.420;2023-10-31T02:01:19;99795.88;;;10.08;100.00
75418;BME280;63997;52.112;5.420;2023-10-31T02:03:47;99789.44;;;10.10;100.00
75418;BME280;63997;52.112;5.420;2023-10-31T02:06:14;99795.56;;;10.10;100.00
75418;BME280;63997;52.112;5.420;2023-10-31T02:08:40;99788.66;;;10.09;100.00
75418;BME280;63997;52.112;5.420;2023-10-31T02:11:07;99776.50;;;10.08;100.00
75418;BME280;63997;52.112;5.420;2023-10-31T02:13:36;99786.00;;;10.09;100.00
75418;BME280;63997;52.112;5.420;2023-10-31T02:16:04;99781.16;;;10.11;100.00
75418;BME280;63997;52.112;5.420;2023-10-31T02:18:31;99791.78;;;10.11;100.00
75418;BME280;63997;52.112;5.420;2023-10-31T02:20:58;99793.31;;;10.12;100.00
75418;BME280;63997;52.112;5.420;2023-10-31T02:23:25;99797.50;;;10.13;100.00
75418;BME280;63997;52.112;5.420;2023-10-31T02:25:52;99794.84;;;10.13;100.00
75418;BME280;63997;52.112;5.420;2023-10-31T02:28:18;99795.97;;;10.12;100.00
75418;BME280;63997;52.112;5.420;2023-10-31T02:30:45;99794.44;;;10.11;100.00
75418;BME280;63997;52.112;5.420;2023-10-31T02:33:11;99793.31;;;10.12;100.00
75418;BME280;63997;52.112;5.420;2023-10-31T02:35:37;99790.31;;;10.14;100.00
75418;BME280;63997;52.112;5.420;2023-10-31T02:38:04;99801.69;;;10.14;100.00
75418;BME280;63997;52.112;5.420;2023-10-31T02:40:30;99792.97;;;10.14;100.00
75418;BME280;63997;52.112;5.420;2023-10-31T02:42:57;99796.38;;;10.14;100.00
75418;BME280;63997;52.112;5.420;2023-10-31T02:45:23;99802.81;;;10.13;100.00
75418;BME280;63997;52.112;5.420;2023-10-31T02:47:50;99805.13;;;10.15;100.00
75418;BME280;63997;52.112;5.420;2023-10-31T02:50:16;99797.16;;;10.15;100.00
75418;BME280;63997;52.112;5.420;2023-10-31T02:52:43;99809.34;;;10.16;100.00
75418;BME280;63997;52.112;5.420;2023-10-31T02:55:09;99808.56;;;10.15;100.00
75418;BME280;63997;52.112;5.420;2023-10-31T02:57:36;99816.97;;;10.17;100.00
75418;BME280;63997;52.112;5.420;2023-10-31T03:00:02;99813.19;;;10.18;100.00
75418;BME280;63997;52.112;5.420;2023-10-31T03:02:30;99815.09;;;10.18;100.00
75418;BME280;63997;52.112;5.420;2023-10-31T03:04:57;99815.84;;;10.18;100.00
75418;BME280;63997;52.112;5.420;2023-10-31T03:07:24;99822.28;;;10.17;100.00
75418;BME280;63997;52.112;5.420;2023-10-31T03:09:50;99817.75;;;10.18;100.00
75418;BME280;63997;52.112;5.420;2023-10-31T03:12:16;99831.44;;;10.20;100.00
75418;BME280;63997;52.112;5.420;2023-10-31T03:14:43;99832.22;;;10.20;100.00
75418;BME280;63997;52.112;5.420;2023-10-31T03:17:09;99831.91;;;10.22;100.00
75418;BME280;63997;52.112;5.420;2023-10-31T03:19:36;99839.88;;;10.22;100.00
75418;BME280;63997;52.112;5.420;2023-10-31T03:22:02;99846.72;;;10.23;100.00
75418;BME280;63997;52.112;5.420;2023-10-31T03:24:28;99848.63;;;10.22;100.00
75418;BME280;63997;52.112;5.420;2023-10-31T03:26:55;99849.06;;;10.24;100.00
75418;BME280;63997;52.112;5.420;2023-10-31T03:29:21;99854.38;;;10.24;100.00
75418;BME280;63997;52.112;5.420;2023-10-31T03:31:48;99855.50;;;10.23;100.00
75418;BME280;63997;52.112;5.420;2023-10-31T03:34:14;99866.13;;;10.23;100.00
75418;BME280;63997;52.112;5.420;2023-10-31T03:36:40;99866.13;;;10.23;100.00
75418;BME280;63997;52.112;5.420;2023-10-31T03:39:07;99868.34;;;10.21;100.00
75418;BME280;63997;52.112;5.420;2023-10-31T03:41:33;99875.19;;;10.22;100.00
75418;BME280;63997;52.112;5.420;2023-10-31T03:44:00;99885.81;;;10.22;100.00
75418;BME280;63997;52.112;5.420;2023-10-31T03:46:26;99888.47;;;10.22;100.00
75418;BME280;63997;52.112;5.420;2023-10-31T03:48:53;99901.75;;;10.22;100.00
75418;BME280;63997;52.112;5.420;2023-10-31T03:51:19;99894.56;;;10.23;100.00
75418;BME280;63997;52.112;5.420;2023-10-31T03:53:45;99903.66;;;10.22;100.00
75418;BME280;63997;52.112;5.420;2023-10-31T03:56:12;99910.84;;;10.21;100.00
75418;BME280;63997;52.112;5.420;2023-10-31T03:58:40;99915.03;;;10.22;100.00
75418;BME280;63997;52.112;5.420;2023-10-31T04:01:06;99918.81;;;10.21;100.00
75418;BME280;63997;52.112;5.420;2023-10-31T04:03:33;99916.94;;;10.22;100.00
75418;BME280;63997;52.112;5.420;2023-10-31T04:05:59;99924.13;;;10.21;100.00
75418;BME280;63997;52.112;5.420;2023-10-31T04:08:26;99925.56;;;10.19;100.00
75418;BME280;63997;52.112;5.420;2023-10-31T04:10:52;99924.78;;;10.18;100.00
75418;BME280;63997;52.112;5.420;2023-10-31T04:13:19;99931.22;;;10.17;100.00
75418;BME280;63997;52.112;5.420;2023-10-31T04:15:45;99934.66;;;10.18;100.00
75418;BME280;63997;52.112;5.420;2023-10-31T04:18:11;99931.56;;;10.16;100.00
75418;BME280;63997;52.112;5.420;2023-10-31T04:20:38;99942.97;;;10.16;100.00
75418;BME280;63997;52.112;5.420;2023-10-31T04:23:04;99932.66;;;10.15;100.00
75418;BME280;63997;52.112;5.420;2023-10-31T04:25:31;99935.31;;;10.15;100.00
75418;BME280;63997;52.112;5.420;2023-10-31T04:27:58;99943.63;;;10.13;100.00
75418;BME280;63997;52.112;5.420;2023-10-31T04:30:25;99942.09;;;10.12;100.00
75418;BME280;63997;52.112;5.420;2023-10-31T04:32:52;99945.88;;;10.11;100.00
75418;BME280;63997;52.112;5.420;2023-10-31T04:35:19;99942.44;;;10.11;100.00
75418;BME280;63997;52.112;5.420;2023-10-31T04:37:45;99947.75;;;10.11;100.00
75418;BME280;63997;52.112;5.420;2023-10-31T04:40:12;99942.75;;;10.09;100.00
75418;BME280;63997;52.112;5.420;2023-10-31T04:42:39;99947.75;;;10.11;100.00
75418;BME280;63997;52.112;5.420;2023-10-31T04:45:07;99944.31;;;10.10;100.00
75418;BME280;63997;52.112;5.420;2023-10-31T04:47:34;99945.75;;;10.07;100.00
75418;BME280;63997;52.112;5.420;2023-10-31T04:50:01;99949.53;;;10.06;100.00
75418;BME280;63997;52.112;5.420;2023-10-31T04:52:27;99956.38;;;10.07;100.00
75418;BME280;63997;52.112;5.420;2023-10-31T04:54:53;99954.06;;;10.06;100.00
75418;BME280;63997;52.112;5.420;2023-10-31T04:57:20;99953.63;;;10.04;100.00
75418;BME280;63997;52.112;5.420;2023-10-31T04:59:46;99958.50;;;10.02;100.00
75418;BME280;63997;52.112;5.420;2023-10-31T05:02:13;99956.94;;;10.01;100.00
75418;BME280;63997;52.112;5.420;2023-10-31T05:04:39;99962.94;;;9.98;100.00
75418;BME280;63997;52.112;5.420;2023-10-31T05:07:08;99956.06;;;9.97;100.00
75418;BME280;63997;52.112;5.420;2023-10-31T05:09:35;99962.84;;;9.94;100.00
75418;BME280;63997;52.112;5.420;2023-10-31T05:12:02;99959.72;;;9.92;100.00
75418;BME280;63997;52.112;5.420;2023-10-31T05:14:28;99971.47;;;9.91;100.00
75418;BME280;63997;52.112;5.420;2023-10-31T05:16:55;99967.63;;;9.89;100.00
75418;BME280;63997;52.112;5.420;2023-10-31T05:19:21;99984.75;;;9.91;100.00
75418;BME280;63997;52.112;5.420;2023-10-31T05:21:48;99983.97;;;9.91;100.00
75418;BME280;63997;52.112;5.420;2023-10-31T05:24:14;99990.75;;;9.88;100.00
75418;BME280;63997;52.112;5.420;2023-10-31T05:26:41;99983.09;;;9.87;100.00
75418;BME280;63997;52.112;5.420;2023-10-31T05:29:09;99984.97;;;9.86;100.00
75418;BME280;63997;52.112;5.420;2023-10-31T05:31:36;99987.19;;;9.84;100.00
75418;BME280;63997;52.112;5.420;2023-10-31T05:34:03;99991.28;;;9.81;100.00
75418;BME280;63997;52.112;5.420;2023-10-31T05:36:33;99988.19;;;9.79;100.00
75418;BME280;63997;52.112;5.420;2023-10-31T05:38:59;99999.16;;;9.78;100.00
75418;BME280;63997;52.112;5.420;2023-10-31T05:41:26;99993.84;;;9.78;100.00
75418;BME280;63997;52.112;5.420;2023-10-31T05:43:52;100006.34;;;9.77;100.00
75418;BME280;63997;52.112;5.420;2023-10-31T05:46:19;100018.09;;;9.76;100.00
75418;BME280;63997;52.112;5.420;2023-10-31T05:48:46;100019.16;;;9.75;100.00
75418;BME280;63997;52.112;5.420;2023-10-31T05:51:14;100013.09;;;9.75;100.00
75418;BME280;63997;52.112;5.420;2023-10-31T05:53:42;100019.16;;;9.75;100.00
75418;BME280;63997;52.112;5.420;2023-10-31T05:56:11;100023.72;;;9.75;100.00
75418;BME280;63997;52.112;5.420;2023-10-31T05:58:39;100026.72;;;9.73;100.00
75418;BME280;63997;52.112;5.420;2023-10-31T06:01:06;100018.31;;;9.71;100.00
75418;BME280;63997;52.112;5.420;2023-10-31T06:03:34;100030.47;;;9.72;100.00
75418;BME280;63997;52.112;5.420;2023-10-31T06:06:00;100028.16;;;9.71;100.00
75418;BME280;63997;52.112;5.420;2023-10-31T06:08:27;100024.28;;;9.68;100.00
75418;BME280;63997;52.112;5.420;2023-10-31T06:10:56;100022.72;;;9.67;100.00
75418;BME280;63997;52.112;5.420;2023-10-31T06:13:24;100031.47;;;9.68;100.00
75418;BME280;63997;52.112;5.420;2023-10-31T06:15:54;100028.47;;;9.69;100.00
75418;BME280;63997;52.112;5.420;2023-10-31T06:18:25;100033.78;;;9.69;100.00
75418;BME280;63997;52.112;5.420;2023-10-31T06:20:52;100038.31;;;9.69;100.00
75418;BME280;63997;52.112;5.420;2023-10-31T06:23:19;100033.34;;;9.67;100.00
75418;BME280;63997;52.112;5.420;2023-10-31T06:25:45;100043.97;;;9.67;100.00
75418;BME280;63997;52.112;5.420;2023-10-31T06:28:12;100046.63;;;9.67;100.00
75418;BME280;63997;52.112;5.420;2023-10-31T06:30:39;100042.44;;;9.66;100.00
75418;BME280;63997;52.112;5.420;2023-10-31T06:33:05;100048.03;;;9.65;100.00
75418;BME280;63997;52.112;5.420;2023-10-31T06:35:33;100052.28;;;9.66;100.00
75418;BME280;63997;52.112;5.420;2023-10-31T06:38:00;100053.47;;;9.68;100.00
75418;BME280;63997;52.112;5.420;2023-10-31T06:40:27;100051.94;;;9.67;100.00
75418;BME280;63997;52.112;5.420;2023-10-31T06:42:53;100056.13;;;9.68;100.00
75418;BME280;63997;52.112;5.420;2023-10-31T06:45:20;100056.91;;;9.69;100.00
75418;BME280;63997;52.112;5.420;2023-10-31T06:47:47;100059.91;;;9.67;100.00
75418;BME280;63997;52.112;5.420;2023-10-31T06:50:13;100068.97;;;9.66;100.00
75418;BME280;63997;52.112;5.420;2023-10-31T06:52:43;100072.75;;;9.65;100.00
75418;BME280;63997;52.112;5.420;2023-10-31T06:55:09;100076.16;;;9.66;100.00
75418;BME280;63997;52.112;5.420;2023-10-31T06:57:36;100079.59;;;9.66;100.00
75418;BME280;63997;52.112;5.420;2023-10-31T07:00:05;100075.81;;;9.67;100.00
75418;BME280;63997;52.112;5.420;2023-10-31T07:02:35;100083.13;;;9.70;100.00
75418;BME280;63997;52.112;5.420;2023-10-31T07:05:02;100085.78;;;9.70;100.00
75418;BME280;63997;52.112;5.420;2023-10-31T07:07:32;100085.00;;;9.70;100.00
75418;BME280;63997;52.112;5.420;2023-10-31T07:09:58;100080.47;;;9.70;100.00
75418;BME280;63997;52.112;5.420;2023-10-31T07:12:25;100082.03;;;9.71;100.00
75418;BME280;63997;52.112;5.420;2023-10-31T07:14:51;100088.44;;;9.70;100.00
75418;BME280;63997;52.112;5.420;2023-10-31T07:17:18;100093.44;;;9.72;100.00
75418;BME280;63997;52.112;5.420;2023-10-31T07:19:44;100094.63;;;9.74;100.00
75418;BME280;63997;52.112;5.420;2023-10-31T07:22:11;100101.47;;;9.75;100.00
75418;BME280;63997;52.112;5.420;2023-10-31T07:24:37;100098.19;;;9.78;100.00
75418;BME280;63997;52.112;5.420;2023-10-31T07:27:04;100104.69;;;9.81;100.00
75418;BME280;63997;52.112;5.420;2023-10-31T07:29:30;100115.00;;;9.83;100.00
75418;BME280;63997;52.112;5.420;2023-10-31T07:31:57;100114.34;;;9.86;100.00
75418;BME280;63997;52.112;5.420;2023-10-31T07:34:23;100116.91;;;9.94;100.00
75418;BME280;63997;52.112;5.420;2023-10-31T07:36:50;100120.44;;;10.11;100.00
75418;BME280;63997;52.112;5.420;2023-10-31T07:39:16;100119.88;;;10.29;100.00
75418;BME280;63997;52.112;5.420;2023-10-31T07:41:43;100126.91;;;10.62;100.00
75418;BME280;63997;52.112;5.420;2023-10-31T07:44:10;100119.44;;;10.80;100.00
75418;BME280;63997;52.112;5.420;2023-10-31T07:46:36;100125.38;;;10.61;100.00
75418;BME280;63997;52.112;5.420;2023-10-31T07:49:02;100131.38;;;10.46;100.00
75418;BME280;63997;52.112;5.420;2023-10-31T07:51:29;100130.06;;;10.40;100.00
75418;BME280;63997;52.112;5.420;2023-10-31T07:53:55;100134.59;;;10.39;100.00
75418;BME280;63997;52.112;5.420;2023-10-31T07:56:24;100137.28;;;10.39;100.00
75418;BME280;63997;52.112;5.420;2023-10-31T07:58:51;100140.34;;;10.41;100.00
75418;BME280;63997;52.112;5.420;2023-10-31T08:01:18;100137.34;;;10.43;100.00
75418;BME280;63997;52.112;5.420;2023-10-31T08:03:48;100139.69;;;10.44;100.00
75418;BME280;63997;52.112;5.420;2023-10-31T08:06:15;100138.59;;;10.45;100.00
75418;BME280;63997;52.112;5.420;2023-10-31T08:08:41;100140.91;;;10.47;100.00
75418;BME280;63997;52.112;5.420;2023-10-31T08:11:09;100137.59;;;10.50;100.00
75418;BME280;63997;52.112;5.420;2023-10-31T08:13:37;100139.91;;;10.51;100.00
75418;BME280;63997;52.112;5.420;2023-10-31T08:16:05;100139.13;;;10.51;100.00
75418;BME280;63997;52.112;5.420;2023-10-31T08:18:32;100149.00;;;10.50;100.00
75418;BME280;63997;52.112;5.420;2023-10-31T08:20:59;100145.31;;;10.55;100.00
75418;BME280;63997;52.112;5.420;2023-10-31T08:23:25;100149.31;;;10.61;100.00
75418;BME280;63997;52.112;5.420;2023-10-31T08:25:52;100141.88;;;10.67;100.00
75418;BME280;63997;52.112;5.420;2023-10-31T08:28:18;100149.69;;;10.75;100.00
75418;BME280;63997;52.112;5.420;2023-10-31T08:30:45;100150.25;;;10.81;100.00
75418;BME280;63997;52.112;5.420;2023-10-31T08:33:13;100148.75;;;10.96;100.00
75418;BME280;63997;52.112;5.420;2023-10-31T08:35:40;100155.47;;;11.05;100.00
75418;BME280;63997;52.112;5.420;2023-10-31T08:38:07;100144.03;;;11.17;100.00
75418;BME280;63997;52.112;5.420;2023-10-31T08:40:46;100157.84;;;11.51;100.00
75418;BME280;63997;52.112;5.420;2023-10-31T08:43:13;100158.00;;;11.58;100.00
75418;BME280;63997;52.112;5.420;2023-10-31T08:45:40;100155.00;;;11.59;100.00
75418;BME280;63997;52.112;5.420;2023-10-31T08:48:06;100164.53;;;11.60;100.00
75418;BME280;63997;52.112;5.420;2023-10-31T08:50:33;100164.22;;;11.62;100.00
75418;BME280;63997;52.112;5.420;2023-10-31T08:52:59;100172.13;;;11.74;100.00
75418;BME280;63997;52.112;5.420;2023-10-31T08:55:28;100179.34;;;11.89;100.00
75418;BME280;63997;52.112;5.420;2023-10-31T08:57:54;100182.47;;;11.91;100.00
75418;BME280;63997;52.112;5.420;2023-10-31T09:00:21;100186.53;;;12.01;100.00
75418;BME280;63997;52.112;5.420;2023-10-31T09:02:47;100189.19;;;12.01;100.00
75418;BME280;63997;52.112;5.420;2023-10-31T09:05:14;100187.19;;;11.98;100.00
75418;BME280;63997;52.112;5.420;2023-10-31T09:07:41;100200.88;;;11.97;100.00
75418;BME280;63997;52.112;5.420;2023-10-31T09:10:08;100200.88;;;11.97;100.00
75418;BME280;63997;52.112;5.420;2023-10-31T09:12:35;100212.66;;;11.96;100.00
75418;BME280;63997;52.112;5.420;2023-10-31T09:15:01;100203.44;;;11.93;100.00
75418;BME280;63997;52.112;5.420;2023-10-31T09:17:28;100210.66;;;11.93;100.00
75418;BME280;63997;52.112;5.420;2023-10-31T09:19:55;100219.78;;;11.91;100.00
75418;BME280;63997;52.112;5.420;2023-10-31T09:22:21;100222.50;;;11.95;100.00
75418;BME280;63997;52.112;5.420;2023-10-31T09:24:48;100229.16;;;12.01;100.00
75418;BME280;63997;52.112;5.420;2023-10-31T09:27:14;100220.56;;;12.08;100.00
75418;BME280;63997;52.112;5.420;2023-10-31T09:29:41;100230.50;;;12.11;100.00
75418;BME280;63997;52.112;5.420;2023-10-31T09:32:07;100227.25;;;12.17;100.00
75418;BME280;63997;52.112;5.420;2023-10-31T09:34:34;100225.91;;;12.24;100.00
75418;BME280;63997;52.112;5.420;2023-10-31T09:37:00;100217.78;;;12.36;100.00
75418;BME280;63997;52.112;5.420;2023-10-31T09:39:27;100226.81;;;12.47;100.00
75418;BME280;63997;52.112;5.420;2023-10-31T09:41:54;100229.63;;;12.54;100.00
75418;BME280;63997;52.112;5.420;2023-10-31T09:44:21;100232.13;;;12.63;100.00
75418;BME280;63997;52.112;5.420;2023-10-31T09:46:48;100237.91;;;12.84;100.00
75418;BME280;63997;52.112;5.420;2023-10-31T09:49:16;100238.13;;;12.95;100.00
75418;BME280;63997;52.112;5.420;2023-10-31T09:51:42;100241.06;;;12.90;100.00
75418;BME280;63997;52.112;5.420;2023-10-31T09:54:09;100241.38;;;13.04;100.00
75418;BME280;63997;52.112;5.420;2023-10-31T09:56:39;100240.84;;;13.14;100.00
75418;BME280;63997;52.112;5.420;2023-10-31T09:59:05;100251.41;;;13.27;99.80
75418;BME280;63997;52.112;5.420;2023-10-31T10:01:32;100251.53;;;13.34;99.32
75418;BME280;63997;52.112;5.420;2023-10-31T10:03:59;100253.03;;;13.50;99.11
75418;BME280;63997;52.112;5.420;2023-10-31T10:06:26;100261.25;;;13.61;99.60
75418;BME280;63997;52.112;5.420;2023-10-31T10:08:52;100269.56;;;13.79;98.68
75418;BME280;63997;52.112;5.420;2023-10-31T10:11:21;100267.38;;;13.85;97.62
75418;BME280;63997;52.112;5.420;2023-10-31T10:13:48;100266.63;;;13.84;96.97
75418;BME280;63997;52.112;5.420;2023-10-31T10:16:33;100275.47;;;13.88;96.92
75418;BME280;63997;52.112;5.420;2023-10-31T10:19:19;100272.09;;;13.91;96.17
75418;BME280;63997;52.112;5.420;2023-10-31T10:21:55;100285.16;;;13.96;95.57
75418;BME280;63997;52.112;5.420;2023-10-31T10:24:23;100282.16;;;13.98;95.60
75418;BME280;63997;52.112;5.420;2023-10-31T10:26:51;100285.03;;;14.09;95.87
75418;BME280;63997;52.112;5.420;2023-10-31T10:29:18;100288.38;;;14.06;95.60
75418;BME280;63997;52.112;5.420;2023-10-31T10:31:44;100285.16;;;13.96;94.22
75418;BME280;63997;52.112;5.420;2023-10-31T10:34:14;100285.53;;;13.95;93.63
75418;BME280;63997;52.112;5.420;2023-10-31T10:36:44;100290.59;;;14.00;94.67
75418;BME280;63997;52.112;5.420;2023-10-31T10:39:13;100292.19;;;14.05;94.74
75418;BME280;63997;52.112;5.420;2023-10-31T10:41:42;100289.28;;;14.13;94.65
75418;BME280;63997;52.112;5.420;2023-10-31T10:44:10;100295.66;;;14.28;94.67
75418;BME280;63997;52.112;5.420;2023-10-31T10:46:40;100294.63;;;14.36;94.28
75418;BME280;63997;52.112;5.420;2023-10-31T10:49:09;100294.97;;;14.35;92.98
75418;BME280;63997;52.112;5.420;2023-10-31T10:51:45;100301.75;;;14.28;92.20
75418;BME280;63997;52.112;5.420;2023-10-31T10:54:19;100299.34;;;14.20;92.85
75418;BME280;63997;52.112;5.420;2023-10-31T10:56:59;100303.38;;;14.33;93.45
75418;BME280;63997;52.112;5.420;2023-10-31T10:59:40;100298.72;;;14.30;93.20
75418;BME280;63997;52.112;5.420;2023-10-31T11:02:08;100291.66;;;14.41;93.62
75418;BME280;63997;52.112;5.420;2023-10-31T11:04:37;100290.69;;;14.49;93.11
75418;BME280;63997;52.112;5.420;2023-10-31T11:07:04;100292.91;;;14.47;92.24
75418;BME280;63997;52.112;5.420;2023-10-31T11:09:32;100299.84;;;14.48;92.78
75418;BME280;63997;52.112;5.420;2023-10-31T11:12:00;100306.78;;;14.53;92.04
75418;BME280;63997;52.112;5.420;2023-10-31T11:14:26;100302.22;;;14.53;91.77
75418;BME280;63997;52.112;5.420;2023-10-31T11:16:55;100305.03;;;14.41;91.66
75418;BME280;63997;52.112;5.420;2023-10-31T11:19:24;100307.13;;;14.51;92.18
75418;BME280;63997;52.112;5.420;2023-10-31T11:22:01;100298.56;;;14.42;91.67
75418;BME280;63997;52.112;5.420;2023-10-31T11:24:37;100297.72;;;14.38;91.40
75418;BME280;63997;52.112;5.420;2023-10-31T11:27:05;100311.69;;;14.28;90.77
75418;BME280;63997;52.112;5.420;2023-10-31T11:29:33;100310.03;;;14.20;91.36
75418;BME280;63997;52.112;5.420;2023-10-31T11:31:59;100314.91;;;14.14;91.72
75418;BME280;63997;52.112;5.420;2023-10-31T11:34:27;100320.19;;;14.11;91.67
75418;BME280;63997;52.112;5.420;2023-10-31T11:37:18;100320.13;;;14.30;93.41
75418;BME280;63997;52.112;5.420;2023-10-31T11:42:41;100324.19;;;14.43;92.30
75418;BME280;63997;52.112;5.420;2023-10-31T11:45:08;100319.50;;;14.37;91.55
75418;BME280;63997;52.112;5.420;2023-10-31T11:47:50;100329.56;;;14.24;91.11
75418;BME280;63997;52.112;5.420;2023-10-31T11:50:17;100329.47;;;14.17;91.48
75418;BME280;63997;52.112;5.420;2023-10-31T11:52:44;100332.41;;;14.12;91.54
75418;BME280;63997;52.112;5.420;2023-10-31T11:55:11;100322.25;;;13.98;91.39
75418;BME280;63997;52.112;5.420;2023-10-31T11:57:39;100326.56;;;13.83;90.89
75418;BME280;63997;52.112;5.420;2023-10-31T12:00:06;100328.38;;;13.79;91.15
75418;BME280;63997;52.112;5.420;2023-10-31T12:02:36;100330.22;;;13.75;91.39
75418;BME280;63997;52.112;5.420;2023-10-31T12:05:09;100333.19;;;13.70;92.30
75418;BME280;63997;52.112;5.420;2023-10-31T12:07:43;100334.28;;;13.69;93.25
75418;BME280;63997;52.112;5.420;2023-10-31T12:10:10;100338.38;;;13.63;92.82
75418;BME280;63997;52.112;5.420;2023-10-31T12:12:37;100337.53;;;13.59;93.55
75418;BME280;63997;52.112;5.420;2023-10-31T12:15:07;100341.13;;;13.47;93.95
75418;BME280;63997;52.112;5.420;2023-10-31T12:17:35;100348.19;;;13.39;94.64
75418;BME280;63997;52.112;5.420;2023-10-31T12:20:06;100337.78;;;13.34;95.25
75418;BME280;63997;52.112;5.420;2023-10-31T12:22:36;100341.94;;;13.32;95.52
75418;BME280;63997;52.112;5.420;2023-10-31T12:25:04;100353.94;;;13.22;95.48
75418;BME280;63997;52.112;5.420;2023-10-31T12:27:57;100365.75;;;13.21;95.93
75418;BME280;63997;52.112;5.420;2023-10-31T12:30:23;100358.81;;;13.20;95.76
75418;BME280;63997;52.112;5.420;2023-10-31T12:32:54;100369.06;;;13.18;95.77
75418;BME280;63997;52.112;5.420;2023-10-31T12:35:23;100365.13;;;13.12;96.11
75418;BME280;63997;52.112;5.420;2023-10-31T12:37:50;100364.00;;;13.13;95.57
75418;BME280;63997;52.112;5.420;2023-10-31T12:40:19;100367.72;;;13.08;95.26
75418;BME280;63997;52.112;5.420;2023-10-31T12:42:48;100366.50;;;13.06;95.22
75418;BME280;63997;52.112;5.420;2023-10-31T12:45:17;100367.28;;;13.06;94.99
75418;BME280;63997;52.112;5.420;2023-10-31T12:47:44;100378.31;;;13.05;95.39
75418;BME280;63997;52.112;5.420;2023-10-31T12:50:15;100383.91;;;13.00;94.59
75418;BME280;63997;52.112;5.420;2023-10-31T12:52:51;100381.94;;;12.96;94.58
75418;BME280;63997;52.112;5.420;2023-10-31T12:55:20;100374.78;;;13.01;95.17